createdAt,value
2023-03-17T00:00:32.212Z,62.0
2023-03-17T00:05:31.788Z,62.0
2023-03-17T00:10:32.286Z,62.0
2023-03-17T00:15:31.762Z,62.0
2023-03-17T00:20:32.189Z,62.0
2023-03-17T00:25:31.774Z,62.0
2023-03-17T00:30:32.303Z,62.0
2023-03-17T00:35:31.837Z,62.0
2023-03-17T00:40:32.225Z,61.5
2023-03-17T00:45:31.789Z,62.0
2023-03-17T00:50:32.263Z,62.0
2023-03-17T00:55:31.783Z,62.0
2023-03-17T01:00:32.179Z,62.0
2023-03-17T01:05:31.793Z,62.0
2023-03-17T01:10:32.243Z,62.0
2023-03-17T01:15:31.795Z,62.0
2023-03-17T01:20:32.227Z,62.0
2023-03-17T01:25:31.808Z,62.0
2023-03-17T01:30:32.372Z,62.0
2023-03-17T01:35:31.877Z,62.0
2023-03-17T01:40:32.354Z,62.0
2023-03-17T01:45:31.821Z,62.0
2023-03-17T01:50:32.013Z,62.0
2023-03-17T01:55:31.809Z,62.0
2023-03-17T02:00:32.270Z,62.0
2023-03-17T02:05:31.812Z,62.0
2023-03-17T02:10:32.268Z,62.0
2023-03-17T02:15:31.821Z,62.0
2023-03-17T02:20:32.352Z,62.0
2023-03-17T02:25:31.831Z,62.5
2023-03-17T02:30:32.139Z,62.5
2023-03-17T02:35:32.000Z,62.5
2023-03-17T02:40:32.231Z,62.5
2023-03-17T02:45:31.839Z,62.5
2023-03-17T02:50:32.223Z,62.5
2023-03-17T02:55:31.853Z,62.5
2023-03-17T03:00:32.340Z,62.5
2023-03-17T03:05:31.853Z,62.5
2023-03-17T03:10:32.333Z,62.5
2023-03-17T03:15:31.932Z,63.0
2023-03-17T03:20:32.145Z,63.0
2023-03-17T03:25:31.860Z,63.0
2023-03-17T03:30:32.332Z,63.0
2023-03-17T03:35:31.914Z,63.0
2023-03-17T03:40:32.312Z,63.0
2023-03-17T03:45:31.869Z,63.0
2023-03-17T03:50:32.108Z,63.0
2023-03-17T03:55:31.880Z,63.0
2023-03-17T04:00:32.551Z,63.0
2023-03-17T04:05:31.894Z,63.0
2023-03-17T04:10:32.243Z,63.0
2023-03-17T04:15:31.883Z,63.0
2023-03-17T04:20:32.424Z,63.5
2023-03-17T04:25:31.886Z,63.5
2023-03-17T04:30:32.350Z,63.5
2023-03-17T04:35:31.934Z,64.0
2023-03-17T04:40:32.285Z,64.0
2023-03-17T04:45:31.958Z,64.0
2023-03-17T04:50:32.379Z,64.0
2023-03-17T04:55:31.901Z,64.0
2023-03-17T05:00:32.102Z,64.5
2023-03-17T05:05:31.936Z,64.0
2023-03-17T05:10:32.330Z,64.5
2023-03-17T05:15:31.911Z,64.5
2023-03-17T05:20:32.420Z,64.5
2023-03-17T05:30:32.136Z,64.5
2023-03-17T05:35:31.952Z,64.5
2023-03-17T05:40:32.190Z,65.0
2023-03-17T05:45:31.920Z,64.5
2023-03-17T05:50:32.206Z,64.5
2023-03-17T05:55:31.933Z,64.5
2023-03-17T06:00:32.289Z,65.0
2023-03-17T06:05:31.935Z,65.0
2023-03-17T06:10:32.211Z,64.5
2023-03-17T06:15:32.229Z,65.0
2023-03-17T06:20:31.944Z,65.0
2023-03-17T06:25:32.572Z,65.0
2023-03-17T06:30:31.951Z,65.0
2023-03-17T06:35:32.300Z,65.0
2023-03-17T06:40:31.961Z,65.5
2023-03-17T06:45:32.364Z,65.5
2023-03-17T06:50:31.962Z,66.5
2023-03-17T06:55:32.421Z,65.5
2023-03-17T07:00:32.103Z,64.5
2023-03-17T07:05:32.323Z,64.5
2023-03-17T07:10:32.025Z,64.0
2023-03-17T07:15:32.365Z,64.0
2023-03-17T07:20:32.121Z,63.5
2023-03-17T07:25:32.268Z,63.5
2023-03-17T07:30:32.041Z,63.5
2023-03-17T07:35:32.282Z,63.0
2023-03-17T07:40:34.311Z,63.0
2023-03-17T07:45:32.356Z,62.5
2023-03-17T07:50:32.008Z,62.5
2023-03-17T07:55:32.466Z,62.5
2023-03-17T08:00:32.387Z,62.0
2023-03-17T08:05:32.019Z,62.0
2023-03-17T08:10:32.287Z,61.5
2023-03-17T08:15:31.965Z,61.5
2023-03-17T08:20:32.407Z,61.5
2023-03-17T08:25:32.097Z,61.5
2023-03-17T08:30:33.805Z,61.5
2023-03-17T08:35:32.204Z,61.0
2023-03-17T08:40:32.357Z,61.0
2023-03-17T08:45:32.255Z,60.5
2023-03-17T08:50:32.273Z,60.5
2023-03-17T08:55:31.955Z,60.5
2023-03-17T09:00:32.412Z,60.0
2023-03-17T09:05:32.469Z,59.5
2023-03-17T09:10:32.255Z,59.5
2023-03-17T09:15:32.312Z,59.5
2023-03-17T09:20:32.367Z,59.0
2023-03-17T09:25:31.977Z,59.0
2023-03-17T09:30:32.331Z,59.0
2023-03-17T09:35:32.021Z,58.0
2023-03-17T09:40:32.322Z,58.5
2023-03-17T09:45:32.004Z,58.0
2023-03-17T09:50:32.402Z,57.5
2023-03-17T09:55:32.220Z,56.5
2023-03-17T10:00:32.007Z,56.0
2023-03-17T10:05:32.331Z,55.5
2023-03-17T10:10:32.419Z,55.5
2023-03-17T10:15:32.297Z,55.5
2023-03-17T10:20:32.023Z,55.5
2023-03-17T10:25:32.274Z,55.5
2023-03-17T10:30:32.384Z,55.0
2023-03-17T10:35:32.424Z,54.5
2023-03-17T10:40:32.343Z,55.0
2023-03-17T10:45:32.044Z,54.5
2023-03-17T10:50:32.369Z,53.5
2023-03-17T10:55:32.048Z,52.0
2023-03-17T11:00:32.512Z,52.5
2023-03-17T11:05:32.073Z,52.5
2023-03-17T11:10:32.412Z,52.5
2023-03-17T11:15:32.073Z,52.0
2023-03-17T11:20:32.560Z,51.5
2023-03-17T11:25:32.125Z,51.5
2023-03-17T11:30:32.580Z,51.5
2023-03-17T11:35:32.105Z,51.0
2023-03-17T11:40:32.580Z,51.0
2023-03-17T11:45:32.104Z,51.0
2023-03-17T11:50:32.271Z,51.0
2023-03-17T11:55:32.111Z,51.0
2023-03-17T12:00:32.443Z,50.5
2023-03-17T12:05:32.108Z,50.5
2023-03-17T12:10:32.438Z,49.5
2023-03-17T12:15:32.172Z,50.0
2023-03-17T12:20:32.590Z,49.0
2023-03-17T12:25:32.133Z,50.0
2023-03-17T12:30:32.665Z,49.5
2023-03-17T12:35:33.038Z,48.5
2023-03-17T12:40:32.626Z,48.5
2023-03-17T12:45:32.467Z,48.0
2023-03-17T12:50:32.149Z,48.0
2023-03-17T12:55:32.412Z,48.0
2023-03-17T13:00:32.151Z,48.0
2023-03-17T13:05:32.556Z,48.0
2023-03-17T13:10:32.406Z,47.0
2023-03-17T13:15:32.535Z,47.5
2023-03-17T13:20:32.164Z,47.0
2023-03-17T13:25:32.676Z,47.5
2023-03-17T13:30:32.494Z,47.0
2023-03-17T13:35:32.637Z,47.0
2023-03-17T13:40:32.545Z,46.0
2023-03-17T13:45:32.554Z,46.0
2023-03-17T13:50:32.184Z,46.5
2023-03-17T13:55:32.444Z,46.0
2023-03-17T14:00:32.269Z,46.0
2023-03-17T14:05:32.746Z,45.0
2023-03-17T14:10:32.213Z,44.5
2023-03-17T14:15:32.520Z,44.5
2023-03-17T14:20:32.194Z,45.5
2023-03-17T14:25:32.578Z,45.5
2023-03-17T14:30:32.206Z,45.5
2023-03-17T14:35:32.923Z,45.5
2023-03-17T14:40:32.212Z,45.0
2023-03-17T14:45:32.468Z,46.0
2023-03-17T14:50:32.230Z,45.5
2023-03-17T14:55:32.754Z,46.0
2023-03-17T15:00:32.345Z,46.0
2023-03-17T15:05:32.506Z,46.0
2023-03-17T15:10:32.498Z,46.5
2023-03-17T15:15:32.243Z,46.5
2023-03-17T15:20:32.728Z,46.5
2023-03-17T15:25:32.261Z,46.5
2023-03-17T15:30:48.082Z,46.5
2023-03-17T15:35:32.267Z,46.5
2023-03-17T15:40:32.968Z,47.0
2023-03-17T15:45:32.259Z,47.0
2023-03-17T15:50:32.536Z,47.0
2023-03-17T15:55:32.281Z,47.5
2023-03-17T16:00:32.528Z,47.5
2023-03-17T16:05:32.261Z,47.5
2023-03-17T16:10:32.841Z,48.0
2023-03-17T16:15:32.273Z,48.0
2023-03-17T16:20:32.651Z,48.0
2023-03-17T16:25:32.271Z,48.5
2023-03-17T16:30:32.462Z,48.5
2023-03-17T16:35:32.300Z,49.0
2023-03-17T16:40:32.639Z,49.5
2023-03-17T16:45:32.283Z,49.5
2023-03-17T16:50:32.591Z,50.0
2023-03-17T16:55:32.294Z,50.0
2023-03-17T17:00:32.644Z,50.0
2023-03-17T17:05:32.296Z,50.5
2023-03-17T17:10:32.591Z,51.0
2023-03-17T17:15:32.300Z,51.0
2023-03-17T17:20:32.600Z,51.5
2023-03-17T17:25:32.575Z,51.5
2023-03-17T17:30:32.785Z,52.0
2023-03-17T17:35:32.967Z,52.5
2023-03-17T17:40:32.601Z,52.5
2023-03-17T17:45:32.336Z,52.5
2023-03-17T17:50:32.677Z,52.0
2023-03-17T17:55:32.390Z,51.5
2023-03-17T18:00:32.576Z,50.5
2023-03-17T18:05:32.340Z,50.0
2023-03-17T18:10:32.533Z,49.5
2023-03-17T18:15:32.321Z,49.0
2023-03-17T18:20:32.711Z,49.0
2023-03-17T18:25:32.328Z,49.0
2023-03-17T18:30:32.607Z,49.0
2023-03-17T18:35:32.387Z,49.0
2023-03-17T18:40:32.412Z,49.0
2023-03-17T18:45:32.479Z,49.0
2023-03-17T18:50:32.847Z,49.0
2023-03-17T18:55:32.391Z,49.0
2023-03-17T19:00:32.735Z,49.5
2023-03-17T19:05:32.346Z,49.5
2023-03-17T19:10:32.667Z,49.5
2023-03-17T19:15:32.352Z,50.0
2023-03-17T19:20:32.772Z,50.0
2023-03-17T19:25:32.356Z,50.5
2023-03-17T19:30:32.610Z,50.5
2023-03-17T19:35:32.516Z,51.0
2023-03-17T19:40:32.739Z,51.0
2023-03-17T19:45:32.405Z,51.5
2023-03-17T19:50:32.683Z,52.0
2023-03-17T19:55:32.720Z,52.0
2023-03-17T20:00:32.786Z,52.5
2023-03-17T20:05:32.385Z,53.0
2023-03-17T20:10:32.688Z,53.0
2023-03-17T20:15:32.377Z,53.0
2023-03-17T20:20:32.687Z,53.5
2023-03-17T20:25:32.383Z,53.5
2023-03-17T20:30:32.923Z,53.5
2023-03-17T20:35:32.405Z,53.5
2023-03-17T20:40:32.574Z,54.0
2023-03-17T20:45:32.408Z,54.0
2023-03-17T20:50:32.738Z,54.0
2023-03-17T20:55:32.405Z,54.0
2023-03-17T21:00:32.697Z,54.0
2023-03-17T21:05:32.409Z,54.0
2023-03-17T21:10:32.572Z,54.0
2023-03-17T21:15:32.412Z,54.0
2023-03-17T21:20:32.704Z,54.0
2023-03-17T21:25:32.420Z,54.0
2023-03-17T21:30:32.756Z,54.0
2023-03-17T21:35:32.496Z,54.5
2023-03-17T21:40:32.651Z,54.5
2023-03-17T21:45:32.462Z,54.5
2023-03-17T21:50:32.772Z,54.5
2023-03-17T21:55:32.434Z,54.5
2023-03-17T22:00:45.857Z,55.0
2023-03-17T22:05:32.447Z,55.0
2023-03-17T22:10:32.742Z,55.0
2023-03-17T22:15:32.446Z,55.0
2023-03-17T22:20:32.965Z,55.0
2023-03-17T22:25:32.454Z,55.5
2023-03-17T22:30:32.701Z,55.5
2023-03-17T22:35:32.490Z,55.5
2023-03-17T22:40:32.795Z,55.5
2023-03-17T22:45:32.479Z,56.0
2023-03-17T22:50:32.818Z,56.0
2023-03-17T22:55:32.506Z,56.5
2023-03-17T23:00:32.980Z,56.5
2023-03-17T23:05:32.498Z,56.5
2023-03-17T23:10:33.001Z,57.0
2023-03-17T23:15:32.489Z,57.0
2023-03-17T23:20:32.826Z,57.5
2023-03-17T23:25:32.496Z,57.5
2023-03-17T23:30:32.710Z,58.0
2023-03-17T23:35:32.652Z,58.0
2023-03-17T23:40:32.777Z,58.0
2023-03-17T23:45:32.495Z,58.5
2023-03-17T23:50:32.836Z,58.5
2023-03-17T23:55:32.506Z,58.5
